Time;durP1;ratioP1;P1;durP2;ratioP2;P2;SDS_P1;SDS_P2;PMS_P1;PMS_P2;Temp;Humidity;BMP_temperature;BMP_pressure;BME280_temperature;BME280_humidity;BME280_pressure;Samples;Min_cycle;Max_cycle;Signal;HPM_P1;HPM_P2
2023/12/02 00:01:33;;;;;;;;;21.75;21.00;;;;;;;;4902864;29;46187;-76
2023/12/02 00:03:58;;;;;;;;;19.50;19.50;;;;;;;;4886010;29;45963;-76
2023/12/02 00:06:23;;;;;;;;;25.25;24.00;;;;;;;;4903098;29;45205;-76
2023/12/02 00:08:48;;;;;;;;;27.50;27.00;;;;;;;;4902954;29;45259;-76
2023/12/02 00:11:13;;;;;;;;;31.75;30.00;;;;;;;;4902775;29;45596;-77
2023/12/02 00:13:39;;;;;;;;;29.00;23.00;;;;;;;;4902787;29;45294;-77
2023/12/02 00:16:05;;;;;;;;;23.67;21.67;;;;;;;;4903037;29;45211;-76
2023/12/02 00:18:30;;;;;;;;;25.00;23.00;;;;;;;;4902370;29;45504;-76
2023/12/02 00:20:55;;;;;;;;;31.75;24.75;;;;;;;;4902405;29;45397;-76
2023/12/02 00:23:21;;;;;;;;;25.75;23.75;;;;;;;;4887456;29;46070;-76
2023/12/02 00:25:46;;;;;;;;;25.67;20.33;;;;;;;;4906539;29;45298;-76
2023/12/02 00:28:11;;;;;;;;;30.67;24.00;;;;;;;;4906129;29;45343;-77
2023/12/02 00:30:36;;;;;;;;;32.00;24.67;;;;;;;;4889113;29;47057;-76
2023/12/02 00:33:01;;;;;;;;;23.25;22.25;;;;;;;;4905970;29;45263;-77
2023/12/02 00:35:26;;;;;;;;;30.75;28.00;;;;;;;;4906101;29;45325;-76
2023/12/02 00:37:51;;;;;;;;;24.00;22.00;;;;;;;;4905976;29;45351;-76
2023/12/02 00:40:17;;;;;;;;;20.33;19.33;;;;;;;;4888915;29;48336;-77
2023/12/02 00:42:42;;;;;;;;;19.00;16.67;;;;;;;;4906214;29;45500;-77
2023/12/02 00:45:07;;;;;;;;;28.33;23.33;;;;;;;;4888886;29;45431;-76
2023/12/02 00:47:32;;;;;;;;;26.67;22.33;;;;;;;;4905726;29;45255;-76
2023/12/02 00:49:58;;;;;;;;;24.75;24.00;;;;;;;;4905878;29;45329;-76
2023/12/02 00:52:23;;;;;;;;;25.67;22.33;;;;;;;;4905517;29;45346;-76
2023/12/02 00:54:48;;;;;;;;;23.33;22.33;;;;;;;;4905822;29;45380;-76
2023/12/02 00:57:13;;;;;;;;;28.00;23.00;;;;;;;;4911796;28;45526;-76
2023/12/02 00:59:38;;;;;;;;;20.67;20.00;;;;;;;;4924668;28;45470;-76
2023/12/02 01:02:06;;;;;;;;;21.00;18.00;;;;;;;;4907230;28;45999;-76
2023/12/02 01:04:31;;;;;;;;;32.75;24.25;;;;;;;;4924323;28;45340;-77
2023/12/02 01:06:56;;;;;;;;;28.00;25.75;;;;;;;;4924251;28;45269;-77
2023/12/02 01:09:22;;;;;;;;;24.00;21.75;;;;;;;;4907146;28;46108;-76
2023/12/02 01:11:47;;;;;;;;;23.25;20.50;;;;;;;;4924476;28;45248;-76
2023/12/02 01:14:12;;;;;;;;;26.00;22.67;;;;;;;;4924672;28;45213;-77
2023/12/02 01:16:37;;;;;;;;;25.50;24.25;;;;;;;;4924217;28;45387;-76
2023/12/02 01:19:02;;;;;;;;;32.25;26.75;;;;;;;;4924035;28;45261;-77
2023/12/02 01:21:27;;;;;;;;;28.25;25.25;;;;;;;;4907993;28;45496;-76
2023/12/02 01:23:53;;;;;;;;;26.00;21.75;;;;;;;;4905356;29;45336;-77
2023/12/02 01:26:18;;;;;;;;;24.25;23.25;;;;;;;;4904243;29;45333;-76
2023/12/02 01:28:44;;;;;;;;;27.00;23.25;;;;;;;;4887812;29;47245;-77
2023/12/02 01:31:09;;;;;;;;;22.33;19.00;;;;;;;;4905170;29;45268;-76
2023/12/02 01:33:34;;;;;;;;;22.67;21.00;;;;;;;;4904475;29;45342;-77
2023/12/02 01:35:59;;;;;;;;;26.67;18.00;;;;;;;;4887492;29;45950;-76
2023/12/02 01:38:24;;;;;;;;;22.50;20.25;;;;;;;;4904823;29;45126;-77
2023/12/02 01:40:49;;;;;;;;;23.67;19.67;;;;;;;;4904990;29;45262;-76
2023/12/02 01:43:33;;;;;;;;;24.25;22.25;;;;;;;;4905451;29;45314;-76
2023/12/02 01:45:58;;;;;;;;;21.25;20.75;;;;;;;;4887545;29;46984;-76
2023/12/02 01:48:26;;;;;;;;;27.33;21.67;;;;;;;;4904396;29;45439;-76
2023/12/02 01:50:51;;;;;;;;;20.50;18.75;;;;;;;;4887488;29;45166;-77
2023/12/02 01:53:16;;;;;;;;;12.25;8.50;;;;;;;;4887713;29;45632;-76
2023/12/02 01:55:42;;;;;;;;;21.25;20.00;;;;;;;;4886888;29;45435;-76
2023/12/02 01:58:08;;;;;;;;;27.25;24.75;;;;;;;;4900802;28;45976;-76
2023/12/02 02:00:33;;;;;;;;;26.50;22.25;;;;;;;;4923681;28;45312;-76
2023/12/02 02:02:59;;;;;;;;;27.25;25.25;;;;;;;;4923576;28;45242;-77
2023/12/02 02:05:24;;;;;;;;;27.00;23.00;;;;;;;;4923568;28;45431;-76
2023/12/02 02:07:49;;;;;;;;;26.50;23.50;;;;;;;;4923619;28;45429;-76
2023/12/02 02:10:14;;;;;;;;;25.75;23.75;;;;;;;;4923643;28;45331;-76
2023/12/02 02:12:39;;;;;;;;;27.00;26.50;;;;;;;;4906115;28;45329;-77
2023/12/02 02:15:05;;;;;;;;;26.50;24.00;;;;;;;;4923505;28;45308;-77
2023/12/02 02:17:30;;;;;;;;;26.75;22.25;;;;;;;;4923134;28;46088;-76
2023/12/02 02:19:55;;;;;;;;;27.75;25.00;;;;;;;;4909954;28;45334;-77
2023/12/02 02:22:20;;;;;;;;;25.50;24.50;;;;;;;;4887507;29;45290;-76
2023/12/02 02:24:46;;;;;;;;;31.50;26.75;;;;;;;;4903720;29;45587;-76
2023/12/02 02:27:11;;;;;;;;;25.00;22.50;;;;;;;;4903683;29;45459;-76
2023/12/02 02:29:36;;;;;;;;;27.75;25.75;;;;;;;;4904433;29;45217;-77
2023/12/02 02:32:01;;;;;;;;;24.25;22.50;;;;;;;;4904087;29;45614;-76
2023/12/02 02:34:27;;;;;;;;;30.00;29.50;;;;;;;;4886823;29;46446;-76
2023/12/02 02:36:53;;;;;;;;;24.50;21.50;;;;;;;;4887131;29;47694;-76
2023/12/02 02:39:18;;;;;;;;;25.00;24.00;;;;;;;;4903917;29;45246;-76
2023/12/02 02:41:44;;;;;;;;;23.50;20.50;;;;;;;;4886982;29;45321;-76
2023/12/02 02:44:09;;;;;;;;;25.00;22.25;;;;;;;;4903823;29;45386;-77
2023/12/02 02:46:34;;;;;;;;;23.00;19.40;;;;;;;;4886147;29;47126;-76
2023/12/02 02:48:59;;;;;;;;;12.00;9.75;;;;;;;;4903696;29;45245;-76
2023/12/02 02:51:24;;;;;;;;;29.00;24.25;;;;;;;;4903870;29;45377;-77
2023/12/02 02:53:49;;;;;;;;;22.50;20.25;;;;;;;;4903718;29;45552;-76
2023/12/02 02:56:15;;;;;;;;;27.00;25.00;;;;;;;;4903704;29;45527;-76
2023/12/02 02:58:40;;;;;;;;;27.00;23.00;;;;;;;;4921346;28;45249;-76
2023/12/02 03:01:05;;;;;;;;;30.25;29.50;;;;;;;;4922903;28;45253;-76
2023/12/02 03:03:30;;;;;;;;;24.25;19.25;;;;;;;;4922321;28;45272;-76
2023/12/02 03:05:56;;;;;;;;;23.00;22.75;;;;;;;;4905567;28;48367;-76
2023/12/02 03:08:21;;;;;;;;;25.25;25.25;;;;;;;;4922851;28;45375;-76
2023/12/02 03:10:50;;;;;;;;;27.00;26.50;;;;;;;;4922791;28;45276;-76
2023/12/02 03:13:15;;;;;;;;;32.50;27.75;;;;;;;;4922301;28;45388;-76
2023/12/02 03:15:40;;;;;;;;;27.50;20.50;;;;;;;;4922382;28;45429;-77
2023/12/02 03:18:05;;;;;;;;;23.25;21.00;;;;;;;;4905072;28;45253;-76
2023/12/02 03:20:30;;;;;;;;;31.00;24.25;;;;;;;;4922250;28;45479;-77
2023/12/02 03:22:55;;;;;;;;;28.00;21.75;;;;;;;;4922304;28;45653;-76
2023/12/02 03:25:21;;;;;;;;;16.25;12.50;;;;;;;;4922391;28;45606;-77
2023/12/02 03:27:46;;;;;;;;;25.50;21.50;;;;;;;;4922554;28;45307;-77
2023/12/02 03:30:12;;;;;;;;;28.50;20.75;;;;;;;;4905354;28;45317;-77
2023/12/02 03:32:41;;;;;;;;;25.50;23.25;;;;;;;;4904847;28;47469;-77
2023/12/02 03:35:07;;;;;;;;;25.25;24.00;;;;;;;;4904903;28;48576;-77
2023/12/02 03:37:32;;;;;;;;;27.00;25.00;;;;;;;;4904770;28;45393;-76
2023/12/02 03:39:57;;;;;;;;;25.75;20.25;;;;;;;;4922786;28;45307;-77
2023/12/02 03:42:22;;;;;;;;;27.75;24.00;;;;;;;;4922203;28;45299;-76
2023/12/02 03:44:47;;;;;;;;;25.25;24.50;;;;;;;;4922268;28;45992;-76
2023/12/02 03:47:13;;;;;;;;;27.25;23.00;;;;;;;;4922039;28;45390;-76
2023/12/02 03:49:38;;;;;;;;;16.75;13.75;;;;;;;;4919905;28;45438;-77
2023/12/02 03:52:04;;;;;;;;;31.25;29.75;;;;;;;;4902989;29;45327;-76
2023/12/02 03:54:29;;;;;;;;;26.50;26.50;;;;;;;;4902601;29;45389;-77
2023/12/02 03:56:54;;;;;;;;;33.00;28.25;;;;;;;;4905169;28;45691;-76
2023/12/02 03:59:19;;;;;;;;;26.50;18.25;;;;;;;;4921939;28;45332;-76
2023/12/02 04:01:45;;;;;;;;;27.25;25.25;;;;;;;;4921584;28;45441;-76
2023/12/02 04:04:10;;;;;;;;;32.00;28.75;;;;;;;;4921671;28;45427;-77
2023/12/02 04:06:35;;;;;;;;;31.75;27.50;;;;;;;;4921893;28;45402;-76
2023/12/02 04:09:00;;;;;;;;;29.00;27.00;;;;;;;;4922207;28;45259;-76
2023/12/02 04:11:25;;;;;;;;;27.25;26.25;;;;;;;;4921719;28;45312;-77
2023/12/02 04:13:51;;;;;;;;;30.75;28.75;;;;;;;;4921869;28;46327;-76
2023/12/02 04:16:16;;;;;;;;;28.50;23.50;;;;;;;;4921681;28;45296;-77
2023/12/02 04:18:41;;;;;;;;;22.75;21.50;;;;;;;;4904713;28;45491;-76
2023/12/02 04:21:08;;;;;;;;;34.50;29.75;;;;;;;;4921547;28;45356;-76
2023/12/02 04:23:33;;;;;;;;;24.75;24.50;;;;;;;;4904446;28;47300;-77
2023/12/02 04:25:58;;;;;;;;;26.75;25.50;;;;;;;;4921574;28;45347;-76
2023/12/02 04:28:24;;;;;;;;;28.50;27.75;;;;;;;;4921941;28;45242;-76
2023/12/02 04:30:49;;;;;;;;;25.50;23.75;;;;;;;;4921828;28;45214;-76
2023/12/02 04:33:14;;;;;;;;;29.25;28.00;;;;;;;;4921311;28;46279;-76
2023/12/02 04:35:40;;;;;;;;;31.00;27.00;;;;;;;;4921503;28;45285;-76
2023/12/02 04:38:05;;;;;;;;;31.00;27.00;;;;;;;;4921648;28;45301;-76
2023/12/02 04:40:31;;;;;;;;;34.25;28.50;;;;;;;;4921522;28;45261;-76
2023/12/02 04:42:56;;;;;;;;;25.50;24.25;;;;;;;;4921430;28;45624;-76
2023/12/02 04:45:22;;;;;;;;;33.50;27.75;;;;;;;;4921515;28;45383;-76
2023/12/02 04:47:47;;;;;;;;;27.20;25.20;;;;;;;;4921756;28;45518;-76
2023/12/02 04:50:12;;;;;;;;;28.75;23.25;;;;;;;;4921237;28;45412;-76
2023/12/02 04:52:37;;;;;;;;;24.75;24.00;;;;;;;;4904019;28;47108;-76
2023/12/02 04:55:02;;;;;;;;;28.75;26.00;;;;;;;;4921284;28;45328;-76
2023/12/02 04:57:28;;;;;;;;;32.25;28.00;;;;;;;;4913228;28;45312;-76
2023/12/02 04:59:53;;;;;;;;;30.75;29.25;;;;;;;;4885193;29;46335;-76
2023/12/02 05:02:19;;;;;;;;;32.75;32.75;;;;;;;;4884611;29;48208;-76
2023/12/02 05:04:44;;;;;;;;;31.75;28.25;;;;;;;;4902149;29;45383;-76
2023/12/02 05:07:09;;;;;;;;;39.25;31.75;;;;;;;;4902415;29;45259;-76
2023/12/02 05:09:36;;;;;;;;;42.00;31.25;;;;;;;;4904460;29;45534;-76
2023/12/02 05:12:01;;;;;;;;;29.00;27.50;;;;;;;;4887994;29;47616;-76
2023/12/02 05:14:26;;;;;;;;;40.25;36.25;;;;;;;;4905325;29;45437;-76
2023/12/02 05:16:52;;;;;;;;;37.75;31.50;;;;;;;;4888533;29;45283;-76
2023/12/02 05:19:17;;;;;;;;;36.25;31.50;;;;;;;;4905128;29;45395;-76
2023/12/02 05:21:42;;;;;;;;;31.00;24.25;;;;;;;;4904580;29;45372;-77
2023/12/02 05:24:08;;;;;;;;;38.25;32.50;;;;;;;;4905288;29;45302;-76
2023/12/02 05:26:33;;;;;;;;;43.25;38.50;;;;;;;;4888229;29;45350;-77
2023/12/02 05:28:59;;;;;;;;;36.75;35.75;;;;;;;;4905199;29;45537;-76
2023/12/02 05:31:25;;;;;;;;;32.00;29.00;;;;;;;;4887886;29;48150;-76
2023/12/02 05:33:51;;;;;;;;;31.25;31.00;;;;;;;;4904910;29;45230;-76
2023/12/02 05:36:16;;;;;;;;;40.50;33.00;;;;;;;;4904583;29;45310;-77
2023/12/02 05:38:41;;;;;;;;;37.25;32.75;;;;;;;;4904936;29;45153;-76
2023/12/02 05:41:07;;;;;;;;;35.25;32.00;;;;;;;;4888262;29;48135;-77
2023/12/02 05:43:32;;;;;;;;;34.00;29.50;;;;;;;;4887873;29;45340;-77
2023/12/02 05:45:57;;;;;;;;;36.75;33.75;;;;;;;;4905137;29;45693;-77
2023/12/02 05:48:23;;;;;;;;;34.60;30.60;;;;;;;;4904857;29;45372;-76
2023/12/02 05:50:48;;;;;;;;;42.25;36.25;;;;;;;;4904889;29;45237;-77
2023/12/02 05:53:13;;;;;;;;;38.50;34.00;;;;;;;;4887650;29;45343;-76
2023/12/02 05:55:38;;;;;;;;;41.25;34.75;;;;;;;;4887845;29;45413;-77
2023/12/02 05:58:03;;;;;;;;;42.20;38.60;;;;;;;;4900029;28;46952;-76
2023/12/02 06:00:29;;;;;;;;;41.25;34.00;;;;;;;;4922483;28;46414;-77
2023/12/02 06:02:54;;;;;;;;;45.75;38.25;;;;;;;;4923586;28;45319;-77
2023/12/02 06:05:19;;;;;;;;;45.00;38.75;;;;;;;;4923863;28;45471;-76
2023/12/02 06:07:44;;;;;;;;;42.50;36.75;;;;;;;;4923867;28;45443;-76
2023/12/02 06:10:09;;;;;;;;;41.25;36.25;;;;;;;;4906473;28;47260;-77
2023/12/02 06:12:35;;;;;;;;;37.50;29.75;;;;;;;;4923577;28;45445;-77
2023/12/02 06:15:00;;;;;;;;;38.25;35.50;;;;;;;;4906591;28;45366;-77
2023/12/02 06:17:25;;;;;;;;;34.75;33.50;;;;;;;;4910535;28;45511;-76
2023/12/02 06:19:50;;;;;;;;;53.00;43.00;;;;;;;;4903991;29;45447;-76
2023/12/02 06:22:16;;;;;;;;;43.25;38.25;;;;;;;;4904074;29;45642;-76
2023/12/02 06:24:41;;;;;;;;;43.75;35.75;;;;;;;;4887592;29;45342;-76
2023/12/02 06:27:06;;;;;;;;;45.00;39.50;;;;;;;;4904452;29;45270;-76
2023/12/02 06:29:31;;;;;;;;;39.75;35.75;;;;;;;;4887317;29;48195;-76
2023/12/02 06:31:56;;;;;;;;;37.50;34.00;;;;;;;;4904127;29;45398;-77
2023/12/02 06:34:22;;;;;;;;;43.75;40.50;;;;;;;;4904483;29;45368;-76
2023/12/02 06:36:47;;;;;;;;;46.50;41.00;;;;;;;;4902713;29;45223;-78
2023/12/02 06:39:12;;;;;;;;;37.75;32.00;;;;;;;;4878629;29;47171;-76
2023/12/02 06:41:38;;;;;;;;;36.50;33.50;;;;;;;;4902933;29;45136;-77
2023/12/02 06:44:03;;;;;;;;;37.00;31.00;;;;;;;;4904412;29;45315;-76
2023/12/02 06:46:28;;;;;;;;;47.50;40.50;;;;;;;;4902759;29;46259;-76
2023/12/02 06:48:53;;;;;;;;;36.50;32.25;;;;;;;;4890311;29;46499;-77
2023/12/02 06:51:19;;;;;;;;;45.50;39.75;;;;;;;;4899633;29;45260;-76
2023/12/02 06:53:44;;;;;;;;;45.25;39.25;;;;;;;;4904178;29;45395;-76
2023/12/02 06:56:16;;;;;;;;;47.25;37.75;;;;;;;;4903971;29;45352;-76
2023/12/02 06:58:41;;;;;;;;;42.25;38.50;;;;;;;;4903582;29;45305;-76
2023/12/02 07:01:06;;;;;;;;;47.40;39.80;;;;;;;;4903863;29;45342;-76
2023/12/02 07:03:31;;;;;;;;;45.50;42.00;;;;;;;;4904107;29;45288;-76
2023/12/02 07:05:56;;;;;;;;;47.50;39.00;;;;;;;;4887024;29;47118;-76
2023/12/02 07:08:21;;;;;;;;;41.50;39.00;;;;;;;;4904034;29;46743;-76
2023/12/02 07:10:47;;;;;;;;;51.25;39.75;;;;;;;;4903903;29;45435;-75
2023/12/02 07:13:12;;;;;;;;;48.80;41.00;;;;;;;;4886862;29;45218;-76
2023/12/02 07:15:37;;;;;;;;;48.25;40.75;;;;;;;;4903504;29;45218;-77
2023/12/02 07:18:02;;;;;;;;;43.00;37.25;;;;;;;;4886574;29;48451;-77
2023/12/02 07:20:28;;;;;;;;;43.00;39.25;;;;;;;;4903425;29;45249;-76
2023/12/02 07:22:53;;;;;;;;;43.25;39.25;;;;;;;;4886577;29;45328;-76
2023/12/02 07:25:18;;;;;;;;;43.50;40.00;;;;;;;;4903790;29;45497;-76
2023/12/02 07:27:43;;;;;;;;;49.00;42.25;;;;;;;;4900611;29;45907;-77
2023/12/02 07:30:09;;;;;;;;;54.50;45.25;;;;;;;;4902253;29;46062;-76
2023/12/02 07:32:34;;;;;;;;;49.50;39.75;;;;;;;;4902259;29;45264;-76
2023/12/02 07:34:59;;;;;;;;;47.25;42.50;;;;;;;;4903450;29;45426;-76
2023/12/02 07:37:24;;;;;;;;;48.50;43.00;;;;;;;;4903332;29;45641;-75
2023/12/02 07:39:50;;;;;;;;;48.00;41.75;;;;;;;;4880468;29;45535;-76
2023/12/02 07:42:16;;;;;;;;;45.00;34.75;;;;;;;;4893795;29;45457;-77
2023/12/02 07:44:41;;;;;;;;;43.00;39.60;;;;;;;;4903501;29;45121;-76
2023/12/02 07:47:06;;;;;;;;;54.00;42.50;;;;;;;;4907428;29;46089;-76
2023/12/02 07:49:32;;;;;;;;;50.75;41.75;;;;;;;;4910825;29;45163;-76
2023/12/02 07:51:57;;;;;;;;;49.50;43.00;;;;;;;;4905003;29;45526;-76
2023/12/02 07:54:22;;;;;;;;;39.00;37.25;;;;;;;;4901497;29;45446;-77
2023/12/02 07:56:47;;;;;;;;;52.25;44.25;;;;;;;;4905612;28;45517;-77
2023/12/02 07:59:12;;;;;;;;;47.75;39.50;;;;;;;;4922008;28;45477;-77
2023/12/02 08:01:37;;;;;;;;;53.25;44.00;;;;;;;;4921102;28;45391;-77
2023/12/02 08:04:03;;;;;;;;;50.00;41.00;;;;;;;;4921811;28;45374;-76
2023/12/02 08:06:28;;;;;;;;;54.50;44.25;;;;;;;;4921979;28;46261;-77
2023/12/02 08:08:53;;;;;;;;;52.00;45.25;;;;;;;;4922091;28;45325;-76
2023/12/02 08:11:19;;;;;;;;;45.25;40.00;;;;;;;;4893226;29;45970;-76
2023/12/02 08:13:44;;;;;;;;;44.75;40.00;;;;;;;;4902825;29;45558;-76
2023/12/02 08:16:10;;;;;;;;;44.75;38.75;;;;;;;;4885687;29;48346;-76
2023/12/02 08:18:35;;;;;;;;;52.00;42.50;;;;;;;;4885686;29;45364;-76
2023/12/02 08:21:00;;;;;;;;;47.75;42.50;;;;;;;;4902906;29;45481;-76
2023/12/02 08:23:25;;;;;;;;;55.00;42.75;;;;;;;;4885553;29;46161;-76
2023/12/02 08:25:51;;;;;;;;;53.50;43.50;;;;;;;;4902761;29;46466;-77
2023/12/02 08:28:16;;;;;;;;;41.50;40.00;;;;;;;;4902723;29;45324;-76
2023/12/02 08:30:42;;;;;;;;;48.00;41.00;;;;;;;;4902910;29;45296;-76
2023/12/02 08:33:07;;;;;;;;;56.00;42.75;;;;;;;;4885296;29;46012;-76
2023/12/02 08:35:32;;;;;;;;;42.00;39.00;;;;;;;;4885217;29;47253;-76
2023/12/02 08:37:57;;;;;;;;;48.75;42.25;;;;;;;;4885503;29;45890;-76
2023/12/02 08:40:23;;;;;;;;;46.25;38.75;;;;;;;;4902880;29;45261;-76
2023/12/02 08:42:48;;;;;;;;;54.00;42.50;;;;;;;;4902734;29;45226;-76
2023/12/02 08:45:13;;;;;;;;;53.00;45.00;;;;;;;;4893937;28;46252;-76
2023/12/02 08:47:38;;;;;;;;;48.50;43.25;;;;;;;;4888025;29;45344;-77
2023/12/02 08:50:03;;;;;;;;;57.75;43.25;;;;;;;;4901638;29;45766;-76
2023/12/02 08:52:29;;;;;;;;;47.25;41.50;;;;;;;;4899615;29;45277;-76
2023/12/02 08:54:54;;;;;;;;;60.00;49.00;;;;;;;;4903153;28;47631;-76
2023/12/02 08:57:19;;;;;;;;;49.75;42.00;;;;;;;;4912503;28;45254;-77
2023/12/02 08:59:44;;;;;;;;;56.25;44.00;;;;;;;;4906700;28;45436;-75
2023/12/02 09:02:09;;;;;;;;;53.00;42.50;;;;;;;;4916997;28;45293;-76
2023/12/02 09:04:35;;;;;;;;;52.25;43.50;;;;;;;;4904566;29;45294;-75
2023/12/02 09:07:00;;;;;;;;;44.00;34.00;;;;;;;;4888034;29;45277;-75
2023/12/02 09:09:25;;;;;;;;;47.00;39.75;;;;;;;;4882080;29;45503;-76
2023/12/02 09:11:51;;;;;;;;;44.75;39.25;;;;;;;;4904131;29;45327;-75
2023/12/02 09:14:16;;;;;;;;;53.75;45.25;;;;;;;;4894470;29;45335;-76
2023/12/02 09:16:46;;;;;;;;;55.25;44.50;;;;;;;;4868773;29;45272;-75
2023/12/02 09:19:34;;;;;;;;;46.50;41.25;;;;;;;;4886104;29;45329;-75
2023/12/02 09:21:59;;;;;;;;;48.00;42.50;;;;;;;;4884755;29;46201;-75
2023/12/02 09:24:31;;;;;;;;;49.75;43.00;;;;;;;;4900279;29;47084;-75
2023/12/02 09:26:56;;;;;;;;;51.50;44.00;;;;;;;;4900218;29;45359;-75
2023/12/02 09:29:26;;;;;;;;;54.75;44.00;;;;;;;;4887161;29;46822;-76
2023/12/02 09:31:51;;;;;;;;;58.25;45.50;;;;;;;;4901765;29;45543;-75
2023/12/02 09:34:46;;;;;;;;;56.75;45.00;;;;;;;;4901242;29;45350;-76
2023/12/02 09:37:30;;;;;;;;;59.00;46.75;;;;;;;;4870576;29;45509;-76
2023/12/02 09:39:59;;;;;;;;;48.75;42.25;;;;;;;;4902301;29;45253;-76
2023/12/02 09:42:25;;;;;;;;;65.25;49.00;;;;;;;;4903819;29;45456;-76
2023/12/02 09:44:54;;;;;;;;;57.25;49.50;;;;;;;;4892507;29;45930;-75
2023/12/02 09:47:20;;;;;;;;;51.00;44.75;;;;;;;;4885202;29;45258;-76
2023/12/02 09:49:57;;;;;;;;;56.50;42.25;;;;;;;;4885161;29;45363;-75
2023/12/02 09:52:24;;;;;;;;;54.00;44.75;;;;;;;;4885461;29;45343;-76
2023/12/02 09:55:07;;;;;;;;;60.25;45.50;;;;;;;;4884386;29;46056;-76
2023/12/02 09:57:32;;;;;;;;;42.50;39.00;;;;;;;;4902900;28;45300;-76
2023/12/02 10:00:12;;;;;;;;;56.40;46.80;;;;;;;;4915163;28;45582;-76
2023/12/02 10:02:46;;;;;;;;;58.50;46.50;;;;;;;;4891638;29;46501;-76
2023/12/02 10:05:13;;;;;;;;;41.50;39.00;;;;;;;;4899127;29;47565;-76
2023/12/02 10:08:00;;;;;;;;;52.50;44.25;;;;;;;;4878645;29;45636;-76
2023/12/02 10:10:26;;;;;;;;;47.50;41.50;;;;;;;;4902933;29;45424;-76
2023/12/02 10:12:52;;;;;;;;;60.25;51.00;;;;;;;;4903500;29;45312;-76
2023/12/02 10:15:19;;;;;;;;;57.25;46.75;;;;;;;;4886047;29;47132;-76
2023/12/02 10:17:47;;;;;;;;;57.50;44.25;;;;;;;;4903472;29;45419;-75
2023/12/02 10:20:15;;;;;;;;;52.00;45.00;;;;;;;;4902419;29;45477;-76
2023/12/02 10:22:54;;;;;;;;;59.00;48.25;;;;;;;;4894351;29;45350;-76
2023/12/02 10:25:26;;;;;;;;;51.25;43.75;;;;;;;;4894453;29;46386;-76
2023/12/02 10:27:55;;;;;;;;;51.25;45.75;;;;;;;;4893994;29;45379;-75
2023/12/02 10:30:22;;;;;;;;;53.25;44.75;;;;;;;;4889648;29;45436;-76
2023/12/02 10:32:53;;;;;;;;;55.00;46.25;;;;;;;;4884215;29;45415;-75
2023/12/02 10:35:27;;;;;;;;;53.00;44.75;;;;;;;;4899612;29;47385;-76
2023/12/02 10:37:59;;;;;;;;;45.75;41.50;;;;;;;;4888985;29;45408;-77
2023/12/02 10:40:26;;;;;;;;;52.75;44.25;;;;;;;;4901328;29;45273;-76
2023/12/02 10:42:51;;;;;;;;;65.50;54.00;;;;;;;;4875798;29;47262;-77
2023/12/02 10:45:18;;;;;;;;;53.50;44.50;;;;;;;;4893243;29;46021;-77
2023/12/02 10:47:45;;;;;;;;;59.75;48.00;;;;;;;;4886332;29;45559;-76
2023/12/02 10:50:11;;;;;;;;;54.50;42.50;;;;;;;;4884179;29;45363;-76
2023/12/02 10:52:37;;;;;;;;;55.75;44.75;;;;;;;;4903334;29;45431;-79
2023/12/02 10:55:03;;;;;;;;;51.00;42.50;;;;;;;;4903509;29;46778;-79
2023/12/02 10:57:29;;;;;;;;;49.25;41.25;;;;;;;;4911668;28;45354;-77
2023/12/02 11:00:03;;;;;;;;;54.00;40.50;;;;;;;;4905853;28;45403;-76
2023/12/02 11:02:37;;;;;;;;;47.25;42.25;;;;;;;;4894037;29;45396;-76
2023/12/02 11:05:22;;;;;;;;;49.50;40.25;;;;;;;;4877156;29;46239;-77
2023/12/02 11:08:02;;;;;;;;;46.75;39.00;;;;;;;;4897068;28;45471;-76
2023/12/02 11:10:36;;;;;;;;;54.00;43.00;;;;;;;;4891886;29;45553;-78
2023/12/02 11:13:04;;;;;;;;;50.50;44.00;;;;;;;;4898161;28;45621;-78
2023/12/02 11:15:32;;;;;;;;;43.00;39.00;;;;;;;;4905372;28;47300;-77
2023/12/02 11:18:03;;;;;;;;;39.00;36.75;;;;;;;;4905062;28;45555;-77
2023/12/02 11:20:49;;;;;;;;;43.25;38.00;;;;;;;;4922322;28;45419;-78
2023/12/02 11:23:20;;;;;;;;;51.50;40.75;;;;;;;;4922492;28;45478;-77
2023/12/02 11:26:01;;;;;;;;;55.50;41.75;;;;;;;;4905029;28;47358;-77
2023/12/02 11:28:45;;;;;;;;;37.75;35.75;;;;;;;;4905189;28;45341;-76
2023/12/02 11:31:29;;;;;;;;;45.75;40.75;;;;;;;;4900731;28;45374;-76
2023/12/02 11:34:13;;;;;;;;;42.75;38.00;;;;;;;;4900595;29;45760;-79
2023/12/02 11:36:57;;;;;;;;;48.00;40.25;;;;;;;;4891168;29;45933;-76
2023/12/02 11:39:31;;;;;;;;;46.25;38.00;;;;;;;;4896890;28;45571;-76
2023/12/02 11:42:06;;;;;;;;;50.25;42.25;;;;;;;;4885938;29;45480;-76
2023/12/02 11:44:43;;;;;;;;;43.25;38.75;;;;;;;;4902644;29;45543;-75
2023/12/02 11:47:17;;;;;;;;;53.00;44.00;;;;;;;;4901970;29;45565;-76
2023/12/02 11:49:48;;;;;;;;;43.25;39.00;;;;;;;;4902681;29;45308;-76
2023/12/02 11:52:26;;;;;;;;;52.25;42.75;;;;;;;;4898700;29;45334;-76
2023/12/02 11:54:51;;;;;;;;;50.25;43.25;;;;;;;;4901509;29;46663;-77
2023/12/02 11:57:26;;;;;;;;;57.60;42.60;;;;;;;;4897925;28;46069;-76
2023/12/02 12:00:12;;;;;;;;;47.25;40.50;;;;;;;;4893924;29;45468;-76
2023/12/02 12:02:37;;;;;;;;;45.00;39.75;;;;;;;;4893511;29;45440;-76
2023/12/02 12:05:22;;;;;;;;;44.20;41.00;;;;;;;;4892805;29;45565;-76
2023/12/02 12:08:04;;;;;;;;;43.25;39.50;;;;;;;;4893662;29;46122;-76
2023/12/02 12:10:35;;;;;;;;;40.00;36.75;;;;;;;;4883596;29;45434;-78
2023/12/02 12:13:01;;;;;;;;;43.75;38.50;;;;;;;;4891732;29;45333;-75
2023/12/02 12:15:27;;;;;;;;;51.75;43.50;;;;;;;;4883730;29;45346;-76
2023/12/02 12:17:53;;;;;;;;;49.25;43.00;;;;;;;;4882878;29;46162;-76
2023/12/02 12:20:19;;;;;;;;;43.50;38.25;;;;;;;;4887254;29;45278;-76
2023/12/02 12:22:45;;;;;;;;;50.00;40.50;;;;;;;;4870873;29;45350;-75
2023/12/02 12:25:10;;;;;;;;;52.50;39.75;;;;;;;;4887879;29;45512;-76
2023/12/02 12:27:35;;;;;;;;;42.75;38.25;;;;;;;;4871494;29;47656;-75
2023/12/02 12:30:00;;;;;;;;;47.50;41.75;;;;;;;;4888448;29;45253;-75
2023/12/02 12:32:25;;;;;;;;;45.75;41.25;;;;;;;;4888431;29;45405;-76
2023/12/02 12:34:54;;;;;;;;;40.25;36.75;;;;;;;;4872689;29;46947;-76
2023/12/02 12:37:19;;;;;;;;;34.75;28.75;;;;;;;;4889907;29;45379;-77
2023/12/02 12:39:45;;;;;;;;;32.75;27.25;;;;;;;;4893237;29;45255;-76
2023/12/02 12:42:10;;;;;;;;;34.25;32.00;;;;;;;;4890306;29;45982;-76
2023/12/02 12:44:35;;;;;;;;;60.75;48.25;;;;;;;;4890132;29;45487;-76
2023/12/02 12:47:01;;;;;;;;;43.25;38.50;;;;;;;;4889812;29;46332;-76
2023/12/02 12:49:28;;;;;;;;;53.75;44.25;;;;;;;;4889995;29;45408;-76
2023/12/02 12:51:59;;;;;;;;;46.25;39.00;;;;;;;;4889920;29;45197;-76
2023/12/02 12:54:27;;;;;;;;;38.75;36.00;;;;;;;;4889905;29;45324;-76
2023/12/02 12:56:55;;;;;;;;;34.00;30.50;;;;;;;;4897018;28;46277;-77
2023/12/02 12:59:24;;;;;;;;;30.00;30.00;;;;;;;;4910517;28;45753;-76
2023/12/02 13:01:58;;;;;;;;;33.25;31.75;;;;;;;;4929896;28;45334;-75
2023/12/02 13:04:28;;;;;;;;;27.50;23.75;;;;;;;;4939508;28;45400;-76
2023/12/02 13:07:03;;;;;;;;;38.00;35.00;;;;;;;;4921968;28;47227;-75
2023/12/02 13:09:30;;;;;;;;;33.00;29.50;;;;;;;;4927244;28;45221;-76
2023/12/02 13:12:02;;;;;;;;;35.00;28.50;;;;;;;;4929724;28;45446;-76
2023/12/02 13:14:33;;;;;;;;;26.25;25.25;;;;;;;;4925320;29;44811;-76
2023/12/02 13:17:00;;;;;;;;;27.00;25.00;;;;;;;;4926563;29;45340;-76
2023/12/02 13:19:26;;;;;;;;;24.33;22.00;;;;;;;;4912555;29;45256;-76
2023/12/02 13:21:52;;;;;;;;;24.75;23.50;;;;;;;;4928463;29;45694;-76
2023/12/02 13:24:18;;;;;;;;;31.00;26.50;;;;;;;;4910051;29;46211;-76
2023/12/02 13:26:43;;;;;;;;;29.50;25.75;;;;;;;;4929353;29;45606;-77
2023/12/02 13:29:10;;;;;;;;;29.00;25.75;;;;;;;;4928478;29;44607;-76
2023/12/02 13:31:37;;;;;;;;;29.00;21.67;;;;;;;;4907533;29;45166;-76
2023/12/02 13:34:02;;;;;;;;;25.00;19.33;;;;;;;;4907186;29;45385;-77
2023/12/02 13:36:32;;;;;;;;;20.50;18.75;;;;;;;;4921636;29;45416;-77
2023/12/02 13:39:08;;;;;;;;;29.50;27.25;;;;;;;;4919814;29;44776;-76
2023/12/02 13:41:46;;;;;;;;;32.33;31.00;;;;;;;;4909344;29;45440;-77
2023/12/02 13:44:11;;;;;;;;;32.00;25.67;;;;;;;;4905108;29;45459;-82
2023/12/02 13:46:42;;;;;;;;;27.67;26.00;;;;;;;;4889574;29;47514;-76
2023/12/02 13:49:20;;;;;;;;;33.33;29.00;;;;;;;;4891234;29;45815;-81
2023/12/02 13:51:49;;;;;;;;;33.00;29.00;;;;;;;;4910415;29;45276;-79
2023/12/02 13:54:21;;;;;;;;;32.33;30.00;;;;;;;;4906450;29;45399;-77
2023/12/02 13:56:52;;;;;;;;;32.00;29.00;;;;;;;;4895888;28;45537;-78
2023/12/02 13:59:23;;;;;;;;;27.00;24.67;;;;;;;;4884699;29;45276;-77
2023/12/02 14:02:08;;;;;;;;;39.67;34.33;;;;;;;;4893125;29;45807;-77
2023/12/02 14:04:39;;;;;;;;;22.33;20.33;;;;;;;;4916131;29;45383;-78
2023/12/02 14:07:17;;;;;;;;;21.00;18.67;;;;;;;;4895201;29;47247;-77
2023/12/02 14:09:42;;;;;;;;;25.00;19.00;;;;;;;;4890169;29;45306;-77
2023/12/02 14:12:22;;;;;;;;;30.00;24.67;;;;;;;;4898147;29;45713;-77
2023/12/02 14:14:47;;;;;;;;;20.67;18.33;;;;;;;;4895656;29;47437;-76
2023/12/02 14:17:31;;;;;;;;;19.50;19.50;;;;;;;;4903728;29;45377;-77